createdAt,value
2023-04-14T04:00:28.688Z,2.10
2023-04-14T04:05:28.610Z,3.40
2023-04-14T04:10:28.560Z,3.30
2023-04-14T04:15:28.527Z,2.80
2023-04-14T04:20:28.513Z,3.10
2023-04-14T04:25:28.392Z,4.00
2023-04-14T04:30:28.336Z,3.70
2023-04-14T04:35:28.309Z,3.60
2023-04-14T04:40:28.249Z,3.50
2023-04-14T04:45:28.171Z,3.40
2023-04-14T04:50:28.121Z,3.60
2023-04-14T04:55:28.098Z,3.50
2023-04-14T05:00:28.073Z,3.40
2023-04-14T05:05:27.976Z,3.50
2023-04-14T05:10:27.914Z,3.30
2023-04-14T05:15:27.887Z,3.40
2023-04-14T05:20:27.947Z,3.00
2023-04-14T05:25:27.776Z,3.00
2023-04-14T05:30:27.723Z,2.60
2023-04-14T05:35:27.670Z,2.80
2023-04-14T05:40:27.611Z,2.60
2023-04-14T05:45:27.541Z,2.60
2023-04-14T05:50:27.495Z,2.50
2023-04-14T05:55:27.455Z,2.20
2023-04-14T06:00:28.001Z,2.00
2023-04-14T06:05:27.473Z,1.60
2023-04-14T06:10:27.262Z,1.60
2023-04-14T06:15:27.244Z,1.70
2023-04-14T06:20:27.193Z,1.60
2023-04-14T06:25:27.110Z,1.80
2023-04-14T06:30:27.065Z,1.70
2023-04-14T06:35:33.619Z,1.60
2023-04-14T06:40:28.001Z,1.90
2023-04-14T06:45:26.881Z,1.90
2023-04-14T06:50:26.856Z,1.80
2023-04-14T06:55:26.786Z,2.10
2023-04-14T07:00:26.780Z,1.90
2023-04-14T07:05:26.697Z,2.00
2023-04-14T07:10:26.833Z,2.10
2023-04-14T07:15:26.560Z,2.30
2023-04-14T07:20:26.575Z,1.70
2023-04-14T07:25:26.466Z,2.00
2023-04-14T07:30:26.459Z,1.70
2023-04-14T07:35:26.347Z,1.80
2023-04-14T07:40:26.404Z,2.20
2023-04-14T07:45:26.226Z,1.50
2023-04-14T07:50:26.285Z,1.90
2023-04-14T07:55:27.475Z,1.70
2023-04-14T08:00:26.096Z,1.90
2023-04-14T08:05:26.108Z,1.70
2023-04-14T08:10:25.956Z,1.70
2023-04-14T08:15:25.909Z,1.90
2023-04-14T08:20:25.858Z,1.90
2023-04-14T08:25:25.783Z,1.50
2023-04-14T08:30:25.745Z,1.80
2023-04-14T08:35:35.233Z,1.40
2023-04-14T08:40:26.682Z,1.50
2023-04-14T08:45:25.640Z,1.50
2023-04-14T08:50:25.532Z,1.80
2023-04-14T08:55:25.604Z,1.20
2023-04-14T09:00:25.427Z,1.50
2023-04-14T09:05:25.364Z,1.20
2023-04-14T09:10:25.319Z,1.30
2023-04-14T09:15:25.247Z,1.20
2023-04-14T09:20:36.794Z,1.50
2023-04-14T09:25:26.155Z,1.00
2023-04-14T09:30:25.061Z,1.10
2023-04-14T09:35:25.005Z,1.30
2023-04-14T09:40:24.978Z,1.20
2023-04-14T09:45:24.926Z,1.30
2023-04-14T09:50:24.876Z,1.30
2023-04-14T09:55:24.806Z,1.40
2023-04-14T10:00:24.778Z,1.40
2023-04-14T10:05:24.713Z,1.40
2023-04-14T10:10:24.778Z,1.20
2023-04-14T10:15:24.606Z,1.20
2023-04-14T10:20:24.574Z,1.40
2023-04-14T10:25:24.494Z,1.50
2023-04-14T10:30:24.451Z,1.20
2023-04-14T10:35:24.394Z,1.40
2023-04-14T10:40:24.344Z,1.30
2023-04-14T10:45:24.272Z,1.40
2023-04-14T10:50:24.219Z,1.40
2023-04-14T10:55:24.176Z,1.20
2023-04-14T11:00:24.105Z,1.20
2023-04-14T11:05:24.037Z,1.00
2023-04-14T11:10:23.989Z,1.20
2023-04-14T11:15:23.953Z,1.30
2023-04-14T11:20:23.975Z,1.30
2023-04-14T11:25:25.035Z,1.20
2023-04-14T11:30:23.780Z,0.90
2023-04-14T11:35:23.708Z,0.90
2023-04-14T11:40:23.690Z,1.20
2023-04-14T11:45:23.770Z,0.90
2023-04-14T11:50:23.536Z,1.00
2023-04-14T11:55:23.481Z,0.70
2023-04-14T12:00:23.459Z,1.10
2023-04-14T12:05:23.378Z,0.80
2023-04-14T12:10:23.326Z,1.00
2023-04-14T12:15:23.260Z,1.00
2023-04-14T12:20:23.273Z,0.90
2023-04-14T12:25:23.144Z,1.10
2023-04-14T12:30:23.090Z,1.10
2023-04-14T12:35:23.040Z,0.90
2023-04-14T12:40:22.991Z,0.90
2023-04-14T12:45:22.935Z,1.00
2023-04-14T12:50:22.864Z,0.80
2023-04-14T12:55:22.856Z,0.60
2023-04-14T13:00:22.781Z,0.80
2023-04-14T13:05:22.711Z,0.80
2023-04-14T13:10:22.647Z,0.80
2023-04-14T13:16:12.119Z,0.60
2023-04-14T13:20:22.559Z,1.10
2023-04-14T13:25:22.481Z,0.70
2023-04-14T13:30:22.435Z,0.80
2023-04-14T13:35:22.388Z,0.70
2023-04-14T13:40:22.368Z,1.00
2023-04-14T13:45:22.290Z,0.80
2023-04-14T13:50:22.219Z,0.70
2023-04-14T13:55:22.160Z,0.70
2023-04-14T14:00:22.142Z,0.70
2023-04-14T14:05:22.051Z,0.80
2023-04-14T14:10:21.991Z,0.80
2023-04-14T14:15:21.940Z,0.80
2023-04-14T14:20:21.915Z,0.60
2023-04-14T14:25:21.855Z,0.90
2023-04-14T14:30:21.819Z,0.60
2023-04-14T14:35:21.723Z,0.70
2023-04-14T14:40:21.686Z,0.70
2023-04-14T14:45:31.359Z,0.70
2023-04-14T14:50:22.555Z,0.90
2023-04-14T14:55:21.452Z,0.60
2023-04-14T15:00:21.424Z,0.60
2023-04-14T15:05:21.347Z,0.70
2023-04-14T15:10:21.299Z,0.60
2023-04-14T15:15:21.269Z,0.70
2023-04-14T15:20:21.249Z,0.80
2023-04-14T15:25:21.180Z,0.70
2023-04-14T15:30:21.139Z,0.70
2023-04-14T15:35:21.093Z,0.50
2023-04-14T15:40:21.065Z,0.60
2023-04-14T15:45:20.976Z,0.50
2023-04-14T15:50:20.921Z,0.50
2023-04-14T15:55:20.860Z,0.50
2023-04-14T16:00:20.828Z,0.50
2023-04-14T16:05:20.873Z,0.60
2023-04-14T16:10:20.720Z,0.50
2023-04-14T16:15:20.651Z,0.50
2023-04-14T16:20:20.627Z,0.60
2023-04-14T16:25:21.662Z,0.80
2023-04-14T16:30:20.500Z,0.50
2023-04-14T16:35:20.441Z,0.60
2023-04-14T16:40:20.412Z,0.60
2023-04-14T16:45:20.811Z,0.60
2023-04-14T16:50:20.313Z,0.60
2023-04-14T16:55:20.251Z,1.70
2023-04-14T17:00:20.172Z,1.00
2023-04-14T17:05:20.264Z,0.60
2023-04-14T17:10:20.168Z,1.60
2023-04-14T17:15:19.971Z,1.00
2023-04-14T17:20:19.935Z,0.60
2023-04-14T17:25:19.883Z,0.80
2023-04-14T17:30:19.803Z,0.60
2023-04-14T17:35:19.758Z,0.70
2023-04-14T17:40:19.717Z,0.60
2023-04-14T17:45:19.650Z,0.70
2023-04-14T17:50:19.581Z,0.70
2023-04-14T17:55:19.525Z,0.60
2023-04-14T18:00:19.492Z,0.70
2023-04-14T18:05:19.425Z,0.70
2023-04-14T18:10:19.364Z,0.70
2023-04-14T18:15:19.313Z,0.80
2023-04-14T18:20:19.301Z,0.80
2023-04-14T18:25:20.273Z,0.80
2023-04-14T18:30:19.152Z,1.20
2023-04-14T18:35:19.090Z,1.70
2023-04-14T18:40:19.062Z,1.70
2023-04-14T18:45:18.984Z,2.10
2023-04-14T18:50:18.928Z,2.10
2023-04-14T18:55:18.871Z,2.30
2023-04-14T19:00:18.840Z,2.50
2023-04-14T19:05:18.774Z,2.50
2023-04-14T19:10:18.720Z,2.40
2023-04-14T19:15:18.657Z,2.50
2023-04-14T19:20:18.614Z,2.30
2023-04-14T19:25:18.598Z,2.20
2023-04-14T19:30:18.496Z,2.50
2023-04-14T19:35:18.456Z,2.20
2023-04-14T19:40:18.401Z,2.70
2023-04-14T19:45:18.328Z,3.50
2023-04-14T19:50:18.266Z,3.30
2023-04-14T19:55:18.207Z,2.90
2023-04-14T20:00:18.169Z,3.30
2023-04-14T20:05:18.100Z,3.30
2023-04-14T20:10:18.042Z,3.30
2023-04-14T20:15:17.989Z,3.60
2023-04-14T20:20:17.965Z,3.30
2023-04-14T20:25:17.885Z,3.50
2023-04-14T20:30:17.828Z,3.30
2023-04-14T20:35:17.772Z,3.20
2023-04-14T20:40:17.772Z,3.60
2023-04-14T20:45:17.669Z,3.70
2023-04-14T20:50:17.607Z,3.40
2023-04-14T20:55:17.556Z,3.70
2023-04-14T21:00:17.533Z,4.40
2023-04-14T21:05:17.472Z,3.60
2023-04-14T21:10:17.413Z,3.70
2023-04-14T21:15:47.484Z,3.40
2023-04-14T21:20:18.308Z,3.60
2023-04-14T21:25:17.240Z,3.60
2023-04-14T21:30:17.210Z,3.70
2023-04-14T21:35:17.122Z,3.60
2023-04-14T21:40:17.088Z,3.60
2023-04-14T21:45:17.012Z,3.90
2023-04-14T21:50:16.966Z,4.10
2023-04-14T21:55:16.905Z,5.00
2023-04-14T22:00:16.878Z,4.40
2023-04-14T22:05:16.797Z,4.40
2023-04-14T22:10:16.744Z,4.40
2023-04-14T22:15:16.918Z,4.30
2023-04-14T22:20:16.677Z,4.40
2023-04-14T22:25:16.589Z,4.70
2023-04-14T22:30:16.526Z,4.20
2023-04-14T22:35:16.476Z,4.00
2023-04-14T22:40:16.463Z,3.80
2023-04-14T22:45:16.396Z,3.90
2023-04-14T22:50:16.313Z,4.40
2023-04-14T22:55:16.277Z,5.30
2023-04-14T23:00:16.233Z,4.90
2023-04-14T23:05:16.155Z,4.80
2023-04-14T23:10:16.101Z,4.40
2023-04-14T23:15:16.052Z,4.60
2023-04-14T23:20:16.014Z,4.60
2023-04-14T23:25:15.941Z,4.20
